sensor_id;sensor_type;location;lat;lon;timestamp;P1;durP1;ratioP1;P2;durP2;ratioP2
20114;SDS011;10218;42.874;25.320;2022-11-28T00:01:26;53.80;;;28.63;;
20114;SDS011;10218;42.874;25.320;2022-11-28T00:03:56;52.00;;;28.50;;
20114;SDS011;10218;42.874;25.320;2022-11-28T00:06:23;55.73;;;28.37;;
20114;SDS011;10218;42.874;25.320;2022-11-28T00:08:51;53.33;;;28.80;;
20114;SDS011;10218;42.874;25.320;2022-11-28T00:11:19;56.77;;;28.63;;
20114;SDS011;10218;42.874;25.320;2022-11-28T00:13:46;56.97;;;28.17;;
20114;SDS011;10218;42.874;25.320;2022-11-28T00:16:18;56.53;;;28.93;;
20114;SDS011;10218;42.874;25.320;2022-11-28T00:18:51;52.37;;;26.80;;
20114;SDS011;10218;42.874;25.320;2022-11-28T00:21:19;50.87;;;27.57;;
20114;SDS011;10218;42.874;25.320;2022-11-28T00:23:49;58.87;;;27.10;;
20114;SDS011;10218;42.874;25.320;2022-11-28T00:26:21;51.57;;;26.83;;
20114;SDS011;10218;42.874;25.320;2022-11-28T00:28:56;48.70;;;26.90;;
20114;SDS011;10218;42.874;25.320;2022-11-28T00:31:28;49.03;;;27.10;;
20114;SDS011;10218;42.874;25.320;2022-11-28T00:33:58;54.37;;;28.70;;
20114;SDS011;10218;42.874;25.320;2022-11-28T00:36:27;60.67;;;29.33;;
20114;SDS011;10218;42.874;25.320;2022-11-28T00:38:55;46.50;;;27.23;;
20114;SDS011;10218;42.874;25.320;2022-11-28T00:41:24;51.97;;;27.90;;
20114;SDS011;10218;42.874;25.320;2022-11-28T00:43:54;48.43;;;26.10;;
20114;SDS011;10218;42.874;25.320;2022-11-28T00:46:22;45.37;;;24.67;;
20114;SDS011;10218;42.874;25.320;2022-11-28T00:48:49;62.57;;;34.10;;
20114;SDS011;10218;42.874;25.320;2022-11-28T00:51:21;68.33;;;33.50;;
20114;SDS011;10218;42.874;25.320;2022-11-28T00:53:50;53.90;;;27.10;;
20114;SDS011;10218;42.874;25.320;2022-11-28T00:56:20;54.37;;;28.23;;
20114;SDS011;10218;42.874;25.320;2022-11-28T00:58:49;50.30;;;26.13;;
20114;SDS011;10218;42.874;25.320;2022-11-28T01:01:18;46.47;;;24.30;;
20114;SDS011;10218;42.874;25.320;2022-11-28T01:03:47;45.40;;;23.90;;
20114;SDS011;10218;42.874;25.320;2022-11-28T01:06:36;49.00;;;22.27;;
20114;SDS011;10218;42.874;25.320;2022-11-28T01:09:10;47.20;;;22.03;;
20114;SDS011;10218;42.874;25.320;2022-11-28T01:11:48;45.53;;;23.57;;
20114;SDS011;10218;42.874;25.320;2022-11-28T01:14:18;55.67;;;27.77;;
20114;SDS011;10218;42.874;25.320;2022-11-28T01:16:46;54.20;;;28.53;;
20114;SDS011;10218;42.874;25.320;2022-11-28T01:19:13;54.23;;;28.43;;
20114;SDS011;10218;42.874;25.320;2022-11-28T01:21:41;52.27;;;27.77;;
20114;SDS011;10218;42.874;25.320;2022-11-28T01:24:08;44.47;;;25.43;;
20114;SDS011;10218;42.874;25.320;2022-11-28T01:26:36;44.43;;;24.57;;
20114;SDS011;10218;42.874;25.320;2022-11-28T01:29:05;46.90;;;25.57;;
20114;SDS011;10218;42.874;25.320;2022-11-28T01:31:32;42.27;;;23.30;;
20114;SDS011;10218;42.874;25.320;2022-11-28T01:34:00;40.20;;;23.00;;
20114;SDS011;10218;42.874;25.320;2022-11-28T01:36:27;46.17;;;22.60;;
20114;SDS011;10218;42.874;25.320;2022-11-28T01:38:55;39.60;;;21.17;;
20114;SDS011;10218;42.874;25.320;2022-11-28T01:41:23;39.90;;;20.90;;
20114;SDS011;10218;42.874;25.320;2022-11-28T01:46:30;47.00;;;21.13;;
20114;SDS011;10218;42.874;25.320;2022-11-28T01:49:11;52.30;;;20.70;;
20114;SDS011;10218;42.874;25.320;2022-11-28T01:51:45;48.00;;;20.77;;
20114;SDS011;10218;42.874;25.320;2022-11-28T01:54:15;42.20;;;20.83;;
20114;SDS011;10218;42.874;25.320;2022-11-28T01:56:47;46.17;;;20.40;;
20114;SDS011;10218;42.874;25.320;2022-11-28T01:59:18;48.90;;;20.47;;
20114;SDS011;10218;42.874;25.320;2022-11-28T02:01:48;45.50;;;21.10;;
20114;SDS011;10218;42.874;25.320;2022-11-28T02:04:16;50.33;;;21.13;;
20114;SDS011;10218;42.874;25.320;2022-11-28T02:06:43;43.23;;;24.73;;
20114;SDS011;10218;42.874;25.320;2022-11-28T02:09:13;51.97;;;28.60;;
20114;SDS011;10218;42.874;25.320;2022-11-28T02:34:11;61.70;;;32.23;;
20114;SDS011;10218;42.874;25.320;2022-11-28T02:36:49;60.57;;;32.27;;
20114;SDS011;10218;42.874;25.320;2022-11-28T02:39:23;55.77;;;31.50;;
20114;SDS011;10218;42.874;25.320;2022-11-28T02:41:58;57.40;;;31.87;;
20114;SDS011;10218;42.874;25.320;2022-11-28T02:44:51;60.30;;;30.97;;
20114;SDS011;10218;42.874;25.320;2022-11-28T02:47:24;60.27;;;32.30;;
20114;SDS011;10218;42.874;25.320;2022-11-28T02:50:04;50.83;;;29.70;;
20114;SDS011;10218;42.874;25.320;2022-11-28T02:52:44;54.67;;;30.77;;
20114;SDS011;10218;42.874;25.320;2022-11-28T02:55:15;52.77;;;30.70;;
20114;SDS011;10218;42.874;25.320;2022-11-28T02:57:47;59.10;;;31.60;;
20114;SDS011;10218;42.874;25.320;2022-11-28T03:00:35;60.27;;;29.67;;
20114;SDS011;10218;42.874;25.320;2022-11-28T03:05:50;53.20;;;28.67;;
20114;SDS011;10218;42.874;25.320;2022-11-28T03:13:46;53.33;;;26.47;;
20114;SDS011;10218;42.874;25.320;2022-11-28T03:16:35;48.80;;;27.20;;
20114;SDS011;10218;42.874;25.320;2022-11-28T03:19:18;48.63;;;27.03;;
20114;SDS011;10218;42.874;25.320;2022-11-28T03:21:54;47.97;;;27.10;;
20114;SDS011;10218;42.874;25.320;2022-11-28T03:24:33;50.37;;;27.90;;
20114;SDS011;10218;42.874;25.320;2022-11-28T03:27:15;50.27;;;28.30;;
20114;SDS011;10218;42.874;25.320;2022-11-28T03:30:16;51.27;;;26.73;;
20114;SDS011;10218;42.874;25.320;2022-11-28T03:32:50;51.90;;;27.27;;
20114;SDS011;10218;42.874;25.320;2022-11-28T03:35:21;56.17;;;29.53;;
20114;SDS011;10218;42.874;25.320;2022-11-28T03:37:56;57.70;;;29.17;;
20114;SDS011;10218;42.874;25.320;2022-11-28T03:40:30;54.93;;;27.80;;
20114;SDS011;10218;42.874;25.320;2022-11-28T03:43:07;51.87;;;29.23;;
20114;SDS011;10218;42.874;25.320;2022-11-28T03:45:38;53.50;;;27.90;;
20114;SDS011;10218;42.874;25.320;2022-11-28T03:48:10;55.23;;;28.10;;
20114;SDS011;10218;42.874;25.320;2022-11-28T03:50:44;54.77;;;27.20;;
20114;SDS011;10218;42.874;25.320;2022-11-28T03:53:17;54.07;;;28.03;;
20114;SDS011;10218;42.874;25.320;2022-11-28T03:58:39;54.13;;;27.20;;
20114;SDS011;10218;42.874;25.320;2022-11-28T04:12:18;50.63;;;25.97;;
20114;SDS011;10218;42.874;25.320;2022-11-28T04:14:54;47.43;;;25.07;;
20114;SDS011;10218;42.874;25.320;2022-11-28T04:18:30;47.53;;;26.93;;
20114;SDS011;10218;42.874;25.320;2022-11-28T04:20:48;57.80;;;29.13;;
20114;SDS011;10218;42.874;25.320;2022-11-28T04:23:34;52.37;;;27.77;;
20114;SDS011;10218;42.874;25.320;2022-11-28T04:26:06;49.10;;;26.40;;
20114;SDS011;10218;42.874;25.320;2022-11-28T04:28:39;48.10;;;24.67;;
20114;SDS011;10218;42.874;25.320;2022-11-28T04:31:07;44.43;;;23.90;;
20114;SDS011;10218;42.874;25.320;2022-11-28T04:33:37;46.90;;;23.60;;
20114;SDS011;10218;42.874;25.320;2022-11-28T04:36:08;47.33;;;25.00;;
20114;SDS011;10218;42.874;25.320;2022-11-28T04:38:38;47.93;;;24.57;;
20114;SDS011;10218;42.874;25.320;2022-11-28T04:41:13;49.50;;;25.17;;
20114;SDS011;10218;42.874;25.320;2022-11-28T04:43:54;46.13;;;25.37;;
20114;SDS011;10218;42.874;25.320;2022-11-28T04:46:34;46.07;;;24.60;;
20114;SDS011;10218;42.874;25.320;2022-11-28T04:49:05;46.90;;;25.23;;
20114;SDS011;10218;42.874;25.320;2022-11-28T04:55:15;49.03;;;26.90;;
20114;SDS011;10218;42.874;25.320;2022-11-28T04:59:57;49.90;;;27.03;;
20114;SDS011;10218;42.874;25.320;2022-11-28T05:02:27;54.40;;;27.43;;
20114;SDS011;10218;42.874;25.320;2022-11-28T05:04:55;50.30;;;26.90;;
20114;SDS011;10218;42.874;25.320;2022-11-28T05:07:23;53.50;;;27.53;;
20114;SDS011;10218;42.874;25.320;2022-11-28T05:09:51;50.03;;;27.67;;
20114;SDS011;10218;42.874;25.320;2022-11-28T05:12:18;56.60;;;28.57;;
20114;SDS011;10218;42.874;25.320;2022-11-28T05:14:45;53.00;;;28.10;;
20114;SDS011;10218;42.874;25.320;2022-11-28T05:17:12;53.23;;;26.53;;
20114;SDS011;10218;42.874;25.320;2022-11-28T05:19:39;50.50;;;27.33;;
20114;SDS011;10218;42.874;25.320;2022-11-28T05:22:06;58.47;;;30.07;;
20114;SDS011;10218;42.874;25.320;2022-11-28T05:24:33;53.73;;;28.80;;
20114;SDS011;10218;42.874;25.320;2022-11-28T05:27:00;49.93;;;26.40;;
20114;SDS011;10218;42.874;25.320;2022-11-28T05:29:28;54.37;;;28.37;;
20114;SDS011;10218;42.874;25.320;2022-11-28T05:31:55;54.77;;;30.13;;
20114;SDS011;10218;42.874;25.320;2022-11-28T05:34:22;54.67;;;29.53;;
20114;SDS011;10218;42.874;25.320;2022-11-28T05:36:49;61.07;;;32.60;;
20114;SDS011;10218;42.874;25.320;2022-11-28T05:39:16;63.13;;;31.47;;
20114;SDS011;10218;42.874;25.320;2022-11-28T05:41:43;60.30;;;32.33;;
20114;SDS011;10218;42.874;25.320;2022-11-28T05:44:10;61.10;;;32.73;;
20114;SDS011;10218;42.874;25.320;2022-11-28T05:46:38;63.83;;;35.00;;
20114;SDS011;10218;42.874;25.320;2022-11-28T05:49:04;59.33;;;31.73;;
20114;SDS011;10218;42.874;25.320;2022-11-28T05:51:31;58.93;;;32.87;;
20114;SDS011;10218;42.874;25.320;2022-11-28T05:53:59;55.90;;;30.80;;
20114;SDS011;10218;42.874;25.320;2022-11-28T05:56:26;53.33;;;29.47;;
20114;SDS011;10218;42.874;25.320;2022-11-28T05:58:53;57.93;;;31.33;;
20114;SDS011;10218;42.874;25.320;2022-11-28T06:01:22;55.37;;;29.93;;
20114;SDS011;10218;42.874;25.320;2022-11-28T06:03:54;60.27;;;31.27;;
20114;SDS011;10218;42.874;25.320;2022-11-28T06:06:27;56.83;;;30.50;;
20114;SDS011;10218;42.874;25.320;2022-11-28T06:08:56;57.73;;;30.63;;
20114;SDS011;10218;42.874;25.320;2022-11-28T06:11:24;62.47;;;34.73;;
20114;SDS011;10218;42.874;25.320;2022-11-28T06:13:52;65.20;;;35.00;;
20114;SDS011;10218;42.874;25.320;2022-11-28T06:16:20;59.50;;;33.50;;
20114;SDS011;10218;42.874;25.320;2022-11-28T06:18:53;52.00;;;28.10;;
20114;SDS011;10218;42.874;25.320;2022-11-28T06:21:22;55.50;;;31.63;;
20114;SDS011;10218;42.874;25.320;2022-11-28T06:23:49;68.30;;;34.77;;
20114;SDS011;10218;42.874;25.320;2022-11-28T06:26:18;53.97;;;28.33;;
20114;SDS011;10218;42.874;25.320;2022-11-28T06:28:47;51.33;;;25.30;;
20114;SDS011;10218;42.874;25.320;2022-11-28T06:31:19;46.93;;;26.33;;
20114;SDS011;10218;42.874;25.320;2022-11-28T06:33:48;50.40;;;26.57;;
20114;SDS011;10218;42.874;25.320;2022-11-28T06:36:16;50.30;;;27.07;;
20114;SDS011;10218;42.874;25.320;2022-11-28T06:38:44;51.60;;;25.20;;
20114;SDS011;10218;42.874;25.320;2022-11-28T06:41:13;46.33;;;25.00;;
20114;SDS011;10218;42.874;25.320;2022-11-28T06:43:43;50.10;;;24.93;;
20114;SDS011;10218;42.874;25.320;2022-11-28T06:46:10;46.27;;;25.50;;
20114;SDS011;10218;42.874;25.320;2022-11-28T06:48:43;50.20;;;27.07;;
20114;SDS011;10218;42.874;25.320;2022-11-28T06:51:10;49.37;;;24.73;;
20114;SDS011;10218;42.874;25.320;2022-11-28T06:53:38;44.90;;;24.40;;
20114;SDS011;10218;42.874;25.320;2022-11-28T06:56:07;51.33;;;26.07;;
20114;SDS011;10218;42.874;25.320;2022-11-28T06:58:35;46.17;;;25.90;;
20114;SDS011;10218;42.874;25.320;2022-11-28T07:01:07;50.17;;;25.87;;
20114;SDS011;10218;42.874;25.320;2022-11-28T07:03:36;49.47;;;25.83;;
20114;SDS011;10218;42.874;25.320;2022-11-28T07:06:05;57.07;;;27.47;;
20114;SDS011;10218;42.874;25.320;2022-11-28T07:08:32;49.90;;;26.20;;
20114;SDS011;10218;42.874;25.320;2022-11-28T07:11:17;56.80;;;29.90;;
20114;SDS011;10218;42.874;25.320;2022-11-28T07:13:45;64.83;;;31.93;;
20114;SDS011;10218;42.874;25.320;2022-11-28T07:16:24;57.47;;;30.60;;
20114;SDS011;10218;42.874;25.320;2022-11-28T07:18:53;51.53;;;28.40;;
20114;SDS011;10218;42.874;25.320;2022-11-28T07:21:22;52.87;;;27.93;;
20114;SDS011;10218;42.874;25.320;2022-11-28T07:23:49;67.73;;;36.20;;
20114;SDS011;10218;42.874;25.320;2022-11-28T07:26:17;62.97;;;33.20;;
20114;SDS011;10218;42.874;25.320;2022-11-28T07:28:47;54.93;;;30.33;;
20114;SDS011;10218;42.874;25.320;2022-11-28T07:31:17;53.77;;;28.80;;
20114;SDS011;10218;42.874;25.320;2022-11-28T07:33:47;55.90;;;29.73;;
20114;SDS011;10218;42.874;25.320;2022-11-28T07:36:18;73.03;;;42.53;;
20114;SDS011;10218;42.874;25.320;2022-11-28T07:38:47;100.43;;;61.73;;
20114;SDS011;10218;42.874;25.320;2022-11-28T07:41:16;60.57;;;33.33;;
20114;SDS011;10218;42.874;25.320;2022-11-28T07:43:43;57.43;;;32.50;;
20114;SDS011;10218;42.874;25.320;2022-11-28T07:46:13;53.73;;;30.70;;
20114;SDS011;10218;42.874;25.320;2022-11-28T07:48:43;48.77;;;26.30;;
20114;SDS011;10218;42.874;25.320;2022-11-28T07:51:11;50.27;;;27.00;;
20114;SDS011;10218;42.874;25.320;2022-11-28T07:53:41;53.90;;;29.93;;
20114;SDS011;10218;42.874;25.320;2022-11-28T07:56:11;53.83;;;29.43;;
20114;SDS011;10218;42.874;25.320;2022-11-28T07:58:42;55.07;;;30.03;;
20114;SDS011;10218;42.874;25.320;2022-11-28T08:01:14;46.30;;;26.77;;
20114;SDS011;10218;42.874;25.320;2022-11-28T08:03:48;43.70;;;24.73;;
20114;SDS011;10218;42.874;25.320;2022-11-28T08:06:16;42.17;;;23.33;;
20114;SDS011;10218;42.874;25.320;2022-11-28T08:08:45;44.93;;;23.30;;
20114;SDS011;10218;42.874;25.320;2022-11-28T08:11:16;45.97;;;25.23;;
20114;SDS011;10218;42.874;25.320;2022-11-28T08:13:44;42.53;;;24.57;;
20114;SDS011;10218;42.874;25.320;2022-11-28T08:16:19;45.10;;;24.33;;
20114;SDS011;10218;42.874;25.320;2022-11-28T08:18:49;46.73;;;24.87;;
20114;SDS011;10218;42.874;25.320;2022-11-28T08:21:19;43.60;;;25.20;;
20114;SDS011;10218;42.874;25.320;2022-11-28T08:23:52;46.10;;;25.83;;
20114;SDS011;10218;42.874;25.320;2022-11-28T08:26:22;45.90;;;25.93;;
20114;SDS011;10218;42.874;25.320;2022-11-28T08:28:53;47.57;;;23.90;;
20114;SDS011;10218;42.874;25.320;2022-11-28T08:31:27;44.50;;;24.17;;
20114;SDS011;10218;42.874;25.320;2022-11-28T08:33:57;43.97;;;24.53;;
20114;SDS011;10218;42.874;25.320;2022-11-28T08:36:26;48.87;;;26.60;;
20114;SDS011;10218;42.874;25.320;2022-11-28T08:38:54;44.83;;;25.47;;
20114;SDS011;10218;42.874;25.320;2022-11-28T08:41:35;39.33;;;21.97;;
20114;SDS011;10218;42.874;25.320;2022-11-28T08:44:02;45.43;;;22.93;;
20114;SDS011;10218;42.874;25.320;2022-11-28T08:46:29;40.93;;;22.63;;
20114;SDS011;10218;42.874;25.320;2022-11-28T08:48:57;36.97;;;21.53;;
20114;SDS011;10218;42.874;25.320;2022-11-28T08:51:28;35.27;;;20.37;;
20114;SDS011;10218;42.874;25.320;2022-11-28T08:53:55;38.87;;;19.77;;
20114;SDS011;10218;42.874;25.320;2022-11-28T08:56:24;34.03;;;18.50;;
20114;SDS011;10218;42.874;25.320;2022-11-28T08:58:51;54.93;;;34.83;;
20114;SDS011;10218;42.874;25.320;2022-11-28T09:01:19;65.83;;;41.93;;
20114;SDS011;10218;42.874;25.320;2022-11-28T09:03:48;63.77;;;38.40;;
20114;SDS011;10218;42.874;25.320;2022-11-28T09:06:16;63.90;;;35.73;;
20114;SDS011;10218;42.874;25.320;2022-11-28T09:08:44;40.23;;;21.70;;
20114;SDS011;10218;42.874;25.320;2022-11-28T09:11:12;38.17;;;19.63;;
20114;SDS011;10218;42.874;25.320;2022-11-28T09:13:41;34.60;;;19.63;;
20114;SDS011;10218;42.874;25.320;2022-11-28T09:16:09;37.83;;;19.37;;
20114;SDS011;10218;42.874;25.320;2022-11-28T09:18:36;32.50;;;17.97;;
20114;SDS011;10218;42.874;25.320;2022-11-28T09:21:05;33.37;;;18.90;;
20114;SDS011;10218;42.874;25.320;2022-11-28T09:23:35;34.97;;;19.07;;
20114;SDS011;10218;42.874;25.320;2022-11-28T09:26:10;32.50;;;19.70;;
20114;SDS011;10218;42.874;25.320;2022-11-28T09:28:39;34.47;;;19.53;;
20114;SDS011;10218;42.874;25.320;2022-11-28T09:31:07;34.40;;;19.30;;
20114;SDS011;10218;42.874;25.320;2022-11-28T09:33:34;40.63;;;22.10;;
20114;SDS011;10218;42.874;25.320;2022-11-28T09:36:05;34.07;;;20.23;;
20114;SDS011;10218;42.874;25.320;2022-11-28T09:38:46;40.90;;;21.17;;
20114;SDS011;10218;42.874;25.320;2022-11-28T09:41:23;39.80;;;22.03;;
20114;SDS011;10218;42.874;25.320;2022-11-28T09:46:45;41.60;;;21.73;;
20114;SDS011;10218;42.874;25.320;2022-11-28T09:49:59;42.73;;;23.50;;
20114;SDS011;10218;42.874;25.320;2022-11-28T09:52:11;49.57;;;24.37;;
20114;SDS011;10218;42.874;25.320;2022-11-28T09:55:10;52.33;;;29.70;;
20114;SDS011;10218;42.874;25.320;2022-11-28T09:58:00;36.40;;;21.37;;
20114;SDS011;10218;42.874;25.320;2022-11-28T10:00:37;39.70;;;20.93;;
20114;SDS011;10218;42.874;25.320;2022-11-28T10:05:44;39.97;;;23.20;;
20114;SDS011;10218;42.874;25.320;2022-11-28T10:11:23;38.10;;;20.33;;
20114;SDS011;10218;42.874;25.320;2022-11-28T10:17:24;48.30;;;24.77;;
20114;SDS011;10218;42.874;25.320;2022-11-28T10:20:19;40.33;;;22.63;;
20114;SDS011;10218;42.874;25.320;2022-11-28T10:22:57;40.33;;;22.60;;
20114;SDS011;10218;42.874;25.320;2022-11-28T10:25:41;40.27;;;24.33;;
20114;SDS011;10218;42.874;25.320;2022-11-28T10:28:13;53.10;;;27.27;;
20114;SDS011;10218;42.874;25.320;2022-11-28T10:30:46;51.07;;;29.37;;
20114;SDS011;10218;42.874;25.320;2022-11-28T10:33:27;46.57;;;27.57;;
20114;SDS011;10218;42.874;25.320;2022-11-28T10:35:58;43.57;;;24.60;;
20114;SDS011;10218;42.874;25.320;2022-11-28T10:38:29;40.50;;;24.73;;
20114;SDS011;10218;42.874;25.320;2022-11-28T10:41:03;35.53;;;21.03;;
20114;SDS011;10218;42.874;25.320;2022-11-28T10:46:28;32.53;;;19.97;;
20114;SDS011;10218;42.874;25.320;2022-11-28T11:00:16;37.27;;;21.47;;
20114;SDS011;10218;42.874;25.320;2022-11-28T11:02:46;43.57;;;24.97;;
20114;SDS011;10218;42.874;25.320;2022-11-28T11:05:17;57.23;;;33.00;;
20114;SDS011;10218;42.874;25.320;2022-11-28T11:07:56;49.87;;;26.97;;
20114;SDS011;10218;42.874;25.320;2022-11-28T11:13:20;38.07;;;21.20;;
20114;SDS011;10218;42.874;25.320;2022-11-28T11:15:57;42.87;;;25.20;;
20114;SDS011;10218;42.874;25.320;2022-11-28T11:18:28;50.87;;;27.97;;
20114;SDS011;10218;42.874;25.320;2022-11-28T11:23:34;37.47;;;21.27;;
20114;SDS011;10218;42.874;25.320;2022-11-28T11:26:04;32.27;;;19.13;;
20114;SDS011;10218;42.874;25.320;2022-11-28T11:28:42;31.10;;;19.57;;
20114;SDS011;10218;42.874;25.320;2022-11-28T11:31:23;35.40;;;21.50;;
20114;SDS011;10218;42.874;25.320;2022-11-28T11:34:04;30.03;;;18.33;;
20114;SDS011;10218;42.874;25.320;2022-11-28T11:36:34;37.37;;;21.40;;
20114;SDS011;10218;42.874;25.320;2022-11-28T11:41:37;29.20;;;18.93;;
20114;SDS011;10218;42.874;25.320;2022-11-28T11:46:52;41.03;;;23.53;;
20114;SDS011;10218;42.874;25.320;2022-11-28T11:49:27;26.80;;;16.50;;
20114;SDS011;10218;42.874;25.320;2022-11-28T11:51:56;32.17;;;19.03;;
20114;SDS011;10218;42.874;25.320;2022-11-28T11:54:24;33.77;;;19.43;;
20114;SDS011;10218;42.874;25.320;2022-11-28T11:56:51;34.13;;;20.10;;
20114;SDS011;10218;42.874;25.320;2022-11-28T11:59:24;32.63;;;20.33;;
20114;SDS011;10218;42.874;25.320;2022-11-28T12:01:56;32.10;;;19.17;;
20114;SDS011;10218;42.874;25.320;2022-11-28T12:04:36;28.57;;;16.70;;
20114;SDS011;10218;42.874;25.320;2022-11-28T12:10:14;30.27;;;18.03;;
20114;SDS011;10218;42.874;25.320;2022-11-28T12:12:45;34.70;;;19.50;;
20114;SDS011;10218;42.874;25.320;2022-11-28T12:15:14;35.57;;;20.00;;
20114;SDS011;10218;42.874;25.320;2022-11-28T12:20:44;25.33;;;16.03;;
20114;SDS011;10218;42.874;25.320;2022-11-28T12:23:34;29.33;;;17.43;;
20114;SDS011;10218;42.874;25.320;2022-11-28T12:26:24;31.60;;;18.67;;
20114;SDS011;10218;42.874;25.320;2022-11-28T12:34:56;25.53;;;15.77;;
20114;SDS011;10218;42.874;25.320;2022-11-28T12:42:45;28.17;;;16.90;;
20114;SDS011;10218;42.874;25.320;2022-11-28T12:45:26;29.10;;;17.23;;
20114;SDS011;10218;42.874;25.320;2022-11-28T12:48:02;27.73;;;17.00;;
20114;SDS011;10218;42.874;25.320;2022-11-28T12:50:46;37.33;;;20.97;;
20114;SDS011;10218;42.874;25.320;2022-11-28T13:01:43;42.13;;;25.00;;
20114;SDS011;10218;42.874;25.320;2022-11-28T13:04:36;38.80;;;24.07;;
20114;SDS011;10218;42.874;25.320;2022-11-28T13:20:28;41.00;;;23.57;;
20114;SDS011;10218;42.874;25.320;2022-11-28T13:23:14;51.80;;;28.50;;
20114;SDS011;10218;42.874;25.320;2022-11-28T13:26:10;36.80;;;22.93;;
20114;SDS011;10218;42.874;25.320;2022-11-28T13:28:57;51.13;;;31.13;;
20114;SDS011;10218;42.874;25.320;2022-11-28T13:34:11;46.63;;;27.23;;
20114;SDS011;10218;42.874;25.320;2022-11-28T13:39:53;51.70;;;28.23;;
20114;SDS011;10218;42.874;25.320;2022-11-28T13:45:32;49.17;;;28.87;;
20114;SDS011;10218;42.874;25.320;2022-11-28T13:51:24;53.43;;;29.83;;
20114;SDS011;10218;42.874;25.320;2022-11-28T13:59:34;50.00;;;28.10;;
20114;SDS011;10218;42.874;25.320;2022-11-28T14:02:03;53.60;;;30.07;;
20114;SDS011;10218;42.874;25.320;2022-11-28T14:04:43;57.43;;;31.90;;
20114;SDS011;10218;42.874;25.320;2022-11-28T14:07:44;57.27;;;31.53;;
20114;SDS011;10218;42.874;25.320;2022-11-28T14:27:23;72.33;;;38.53;;
20114;SDS011;10218;42.874;25.320;2022-11-28T14:29:55;69.10;;;38.77;;
20114;SDS011;10218;42.874;25.320;2022-11-28T14:32:29;58.90;;;33.67;;
20114;SDS011;10218;42.874;25.320;2022-11-28T14:35:16;53.57;;;31.47;;
20114;SDS011;10218;42.874;25.320;2022-11-28T14:41:02;52.53;;;30.10;;
20114;SDS011;10218;42.874;25.320;2022-11-28T14:43:33;61.53;;;34.30;;
20114;SDS011;10218;42.874;25.320;2022-11-28T14:52:26;71.97;;;40.27;;
20114;SDS011;10218;42.874;25.320;2022-11-28T14:54:43;77.77;;;41.10;;
20114;SDS011;10218;42.874;25.320;2022-11-28T14:57:15;83.30;;;42.20;;
20114;SDS011;10218;42.874;25.320;2022-11-28T15:00:02;78.17;;;42.17;;
20114;SDS011;10218;42.874;25.320;2022-11-28T15:02:46;98.10;;;47.23;;
20114;SDS011;10218;42.874;25.320;2022-11-28T15:11:38;148.13;;;75.73;;
20114;SDS011;10218;42.874;25.320;2022-11-28T15:14:25;94.87;;;50.07;;
20114;SDS011;10218;42.874;25.320;2022-11-28T15:16:55;86.90;;;44.73;;
20114;SDS011;10218;42.874;25.320;2022-11-28T15:19:28;88.63;;;47.57;;
20114;SDS011;10218;42.874;25.320;2022-11-28T15:22:03;77.13;;;42.77;;
20114;SDS011;10218;42.874;25.320;2022-11-28T15:24:32;117.23;;;62.87;;
20114;SDS011;10218;42.874;25.320;2022-11-28T15:29:34;108.33;;;54.60;;
20114;SDS011;10218;42.874;25.320;2022-11-28T15:32:03;107.07;;;56.83;;
20114;SDS011;10218;42.874;25.320;2022-11-28T15:34:35;127.13;;;68.43;;
20114;SDS011;10218;42.874;25.320;2022-11-28T15:37:05;131.17;;;67.00;;
20114;SDS011;10218;42.874;25.320;2022-11-28T15:39:40;107.10;;;56.53;;
20114;SDS011;10218;42.874;25.320;2022-11-28T15:47:25;99.50;;;53.43;;
20114;SDS011;10218;42.874;25.320;2022-11-28T15:50:12;93.67;;;47.37;;
20114;SDS011;10218;42.874;25.320;2022-11-28T15:52:57;75.83;;;42.30;;
20114;SDS011;10218;42.874;25.320;2022-11-28T15:55:30;50.83;;;27.40;;
20114;SDS011;10218;42.874;25.320;2022-11-28T16:00:58;99.63;;;38.10;;
20114;SDS011;10218;42.874;25.320;2022-11-28T16:03:28;126.03;;;42.37;;
20114;SDS011;10218;42.874;25.320;2022-11-28T16:05:59;133.33;;;48.13;;
20114;SDS011;10218;42.874;25.320;2022-11-28T16:08:30;130.10;;;48.37;;
20114;SDS011;10218;42.874;25.320;2022-11-28T16:11:03;150.73;;;58.00;;
20114;SDS011;10218;42.874;25.320;2022-11-28T16:13:33;131.03;;;60.07;;
20114;SDS011;10218;42.874;25.320;2022-11-28T16:16:06;140.00;;;65.97;;
20114;SDS011;10218;42.874;25.320;2022-11-28T16:18:42;100.97;;;51.17;;
20114;SDS011;10218;42.874;25.320;2022-11-28T16:21:19;91.03;;;44.57;;
20114;SDS011;10218;42.874;25.320;2022-11-28T16:23:51;84.90;;;42.40;;
20114;SDS011;10218;42.874;25.320;2022-11-28T16:26:20;72.63;;;36.53;;
20114;SDS011;10218;42.874;25.320;2022-11-28T16:29:08;72.13;;;36.50;;
20114;SDS011;10218;42.874;25.320;2022-11-28T16:31:39;86.60;;;44.13;;
20114;SDS011;10218;42.874;25.320;2022-11-28T16:34:12;72.53;;;38.07;;
20114;SDS011;10218;42.874;25.320;2022-11-28T16:36:40;72.33;;;37.70;;
20114;SDS011;10218;42.874;25.320;2022-11-28T16:39:15;76.53;;;38.23;;
20114;SDS011;10218;42.874;25.320;2022-11-28T16:41:50;72.17;;;38.83;;
20114;SDS011;10218;42.874;25.320;2022-11-28T16:44:30;75.37;;;40.90;;
20114;SDS011;10218;42.874;25.320;2022-11-28T16:46:59;90.20;;;46.17;;
20114;SDS011;10218;42.874;25.320;2022-11-28T16:52:50;70.43;;;37.63;;
20114;SDS011;10218;42.874;25.320;2022-11-28T16:54:51;85.33;;;40.73;;
20114;SDS011;10218;42.874;25.320;2022-11-28T16:57:19;65.93;;;33.80;;
20114;SDS011;10218;42.874;25.320;2022-11-28T16:59:47;64.03;;;34.93;;
20114;SDS011;10218;42.874;25.320;2022-11-28T17:02:20;61.27;;;32.73;;
20114;SDS011;10218;42.874;25.320;2022-11-28T17:04:49;60.27;;;32.53;;
20114;SDS011;10218;42.874;25.320;2022-11-28T17:07:22;62.47;;;33.70;;
20114;SDS011;10218;42.874;25.320;2022-11-28T17:09:50;73.90;;;39.87;;
20114;SDS011;10218;42.874;25.320;2022-11-28T17:14:54;61.23;;;34.90;;
20114;SDS011;10218;42.874;25.320;2022-11-28T17:17:22;65.07;;;36.53;;
20114;SDS011;10218;42.874;25.320;2022-11-28T17:19:49;59.60;;;33.07;;
20114;SDS011;10218;42.874;25.320;2022-11-28T17:22:17;49.63;;;29.23;;
20114;SDS011;10218;42.874;25.320;2022-11-28T17:24:47;46.47;;;26.53;;
20114;SDS011;10218;42.874;25.320;2022-11-28T17:27:15;43.07;;;23.67;;
20114;SDS011;10218;42.874;25.320;2022-11-28T17:29:43;40.33;;;22.77;;
20114;SDS011;10218;42.874;25.320;2022-11-28T17:32:10;38.50;;;21.57;;
20114;SDS011;10218;42.874;25.320;2022-11-28T17:34:39;45.20;;;23.57;;
20114;SDS011;10218;42.874;25.320;2022-11-28T17:37:08;41.67;;;23.20;;
20114;SDS011;10218;42.874;25.320;2022-11-28T17:39:35;57.37;;;34.17;;
20114;SDS011;10218;42.874;25.320;2022-11-28T17:42:02;59.57;;;33.63;;
20114;SDS011;10218;42.874;25.320;2022-11-28T17:44:31;81.60;;;49.00;;
20114;SDS011;10218;42.874;25.320;2022-11-28T17:47:00;114.63;;;67.77;;
20114;SDS011;10218;42.874;25.320;2022-11-28T17:49:29;60.73;;;36.17;;
20114;SDS011;10218;42.874;25.320;2022-11-28T17:51:57;40.40;;;23.10;;
20114;SDS011;10218;42.874;25.320;2022-11-28T17:54:25;46.70;;;26.13;;